createdAt,value
2023-05-21T00:01:45.888Z,56.03
2023-05-21T00:04:13.280Z,56.22
2023-05-21T00:06:40.409Z,55.75
2023-05-21T00:09:08.067Z,56.70
2023-05-21T00:11:35.218Z,57.14
2023-05-21T00:14:02.378Z,57.72
2023-05-21T00:16:29.462Z,58.45
2023-05-21T00:18:58.234Z,58.59
2023-05-21T00:21:26.616Z,58.90
2023-05-21T00:23:57.209Z,58.96
2023-05-21T00:26:24.414Z,58.96
2023-05-21T00:28:54.536Z,59.59
2023-05-21T00:31:21.916Z,59.40
2023-05-21T00:33:49.027Z,59.22
2023-05-21T00:36:16.159Z,58.95
2023-05-21T00:38:44.213Z,58.94
2023-05-21T00:41:12.000Z,59.22
2023-05-21T00:43:42.296Z,59.27
2023-05-21T00:46:19.774Z,59.46
2023-05-21T00:48:48.132Z,59.91
2023-05-21T00:51:16.713Z,59.86
2023-05-21T00:53:44.927Z,58.80
2023-05-21T00:56:12.334Z,58.52
2023-05-21T00:58:40.706Z,57.97
2023-05-21T01:01:13.880Z,58.17
2023-05-21T01:03:41.337Z,59.00
2023-05-21T01:06:09.886Z,59.64
2023-05-21T01:08:40.912Z,60.06
2023-05-21T01:11:10.870Z,60.98
2023-05-21T01:13:41.518Z,61.30
2023-05-21T01:16:09.553Z,62.03
2023-05-21T01:18:38.104Z,61.51
2023-05-21T01:21:07.538Z,61.26
2023-05-21T01:23:35.449Z,61.45
2023-05-21T01:26:02.486Z,61.04
2023-05-21T01:28:30.067Z,61.14
2023-05-21T01:31:00.942Z,61.94
2023-05-21T01:33:41.943Z,61.87
2023-05-21T01:36:24.371Z,61.54
2023-05-21T01:39:09.645Z,61.14
2023-05-21T01:41:42.046Z,60.28
2023-05-21T01:44:10.244Z,59.44
2023-05-21T01:46:38.659Z,60.47
2023-05-21T01:49:07.897Z,61.63
2023-05-21T01:51:36.211Z,61.80
2023-05-21T01:54:03.667Z,62.08
2023-05-21T01:56:34.032Z,61.61
2023-05-21T01:59:01.314Z,60.63
2023-05-21T02:01:30.443Z,60.95
2023-05-21T02:03:58.433Z,60.74
2023-05-21T02:06:25.735Z,61.06
2023-05-21T02:08:52.827Z,60.05
2023-05-21T02:11:19.962Z,59.88
2023-05-21T02:13:46.978Z,61.31
2023-05-21T02:16:15.977Z,60.89
2023-05-21T02:18:43.718Z,60.72
2023-05-21T02:21:11.631Z,60.62
2023-05-21T02:23:38.915Z,60.98
2023-05-21T02:26:05.937Z,60.67
2023-05-21T02:28:32.961Z,61.42
2023-05-21T02:31:00.111Z,60.04
2023-05-21T02:33:27.119Z,61.51
2023-05-21T02:35:54.261Z,62.22
2023-05-21T02:38:23.156Z,61.92
2023-05-21T02:40:53.688Z,61.72
2023-05-21T02:43:20.987Z,62.88
2023-05-21T02:45:48.108Z,62.52
2023-05-21T02:48:15.281Z,63.52
2023-05-21T02:50:42.860Z,63.23
2023-05-21T02:53:10.009Z,63.11
2023-05-21T02:55:37.440Z,62.98
2023-05-21T02:58:05.588Z,62.29
2023-05-21T03:00:32.732Z,62.00
2023-05-21T03:03:00.761Z,60.94
2023-05-21T03:05:27.909Z,60.84
2023-05-21T03:07:54.909Z,60.60
2023-05-21T03:10:21.944Z,60.32
2023-05-21T03:12:49.091Z,59.25
2023-05-21T03:15:16.371Z,58.71
2023-05-21T03:17:44.674Z,58.47
2023-05-21T03:20:18.907Z,58.39
2023-05-21T03:22:46.784Z,56.85
2023-05-21T03:25:14.394Z,56.40
2023-05-21T03:27:41.442Z,56.09
2023-05-21T03:30:23.105Z,55.76
2023-05-21T03:33:08.988Z,55.17
2023-05-21T03:35:36.805Z,54.56
2023-05-21T03:38:04.663Z,54.47
2023-05-21T03:40:31.696Z,53.00
2023-05-21T03:42:58.823Z,53.75
2023-05-21T03:45:27.011Z,53.82
2023-05-21T03:48:18.283Z,53.68
2023-05-21T03:50:45.728Z,53.03
2023-05-21T03:53:13.971Z,52.57
2023-05-21T03:55:41.398Z,52.31
2023-05-21T03:58:09.659Z,51.92
2023-05-21T04:00:40.747Z,51.52
2023-05-21T04:03:07.831Z,50.64
2023-05-21T04:05:35.114Z,49.39
2023-05-21T04:08:02.461Z,48.89
2023-05-21T04:10:29.686Z,48.50
2023-05-21T04:12:56.765Z,48.45
2023-05-21T04:15:24.632Z,48.76
2023-05-21T04:17:52.657Z,48.86
2023-05-21T04:20:20.066Z,48.86
2023-05-21T04:22:47.690Z,49.33
2023-05-21T04:25:14.939Z,49.54
2023-05-21T04:27:43.733Z,50.40
2023-05-21T04:30:11.363Z,49.67
2023-05-21T04:32:39.496Z,49.17
2023-05-21T04:35:08.513Z,48.25
2023-05-21T04:37:36.418Z,48.36
2023-05-21T04:40:04.118Z,48.15
2023-05-21T04:42:33.109Z,47.91
2023-05-21T04:45:01.390Z,46.60
2023-05-21T04:47:30.693Z,45.92
2023-05-21T04:49:59.534Z,45.71
2023-05-21T04:52:28.146Z,47.44
2023-05-21T04:54:55.234Z,47.39
2023-05-21T04:57:24.644Z,45.88
2023-05-21T04:59:52.853Z,45.41
2023-05-21T05:02:20.036Z,45.72
2023-05-21T05:04:46.999Z,45.52
2023-05-21T05:07:15.196Z,43.84
2023-05-21T05:09:42.220Z,42.03
2023-05-21T05:12:09.337Z,42.09
2023-05-21T05:14:36.432Z,41.56
2023-05-21T05:17:05.806Z,40.08
2023-05-21T05:19:32.920Z,40.45
2023-05-21T05:22:00.012Z,39.12
2023-05-21T05:24:27.139Z,38.87
2023-05-21T05:26:54.539Z,39.66
2023-05-21T05:29:21.627Z,39.89
2023-05-21T05:31:49.894Z,39.54
2023-05-21T05:34:17.780Z,39.56
2023-05-21T05:36:44.821Z,38.33
2023-05-21T05:39:11.993Z,38.42
2023-05-21T05:41:39.978Z,38.38
2023-05-21T05:44:08.918Z,38.49
2023-05-21T05:46:37.944Z,38.46
2023-05-21T05:49:05.330Z,37.59
2023-05-21T05:51:32.480Z,37.55
2023-05-21T05:53:59.524Z,36.06
2023-05-21T05:56:27.140Z,36.49
2023-05-21T05:58:54.309Z,36.40
2023-05-21T06:01:24.829Z,36.50
2023-05-21T06:03:52.714Z,36.85
2023-05-21T06:06:20.205Z,36.34
2023-05-21T06:08:47.794Z,36.86
2023-05-21T06:11:17.334Z,35.58
2023-05-21T06:13:45.810Z,35.85
2023-05-21T06:16:14.075Z,37.11
2023-05-21T06:18:41.173Z,36.35
2023-05-21T06:21:08.768Z,35.67
2023-05-21T06:23:37.878Z,35.32
2023-05-21T06:26:05.426Z,34.89
2023-05-21T06:28:32.763Z,34.72
2023-05-21T06:31:01.154Z,34.23
2023-05-21T06:33:28.858Z,34.69
2023-05-21T06:35:56.075Z,35.33
2023-05-21T06:38:24.181Z,34.88
2023-05-21T06:40:51.244Z,35.59
2023-05-21T06:43:34.057Z,34.40
2023-05-21T06:46:20.047Z,34.01
2023-05-21T06:48:47.251Z,33.44
2023-05-21T06:51:14.444Z,32.97
2023-05-21T06:53:41.566Z,33.50
2023-05-21T06:56:08.822Z,33.94
2023-05-21T06:58:38.840Z,33.48
2023-05-21T07:01:06.118Z,33.29
2023-05-21T07:03:33.302Z,32.10
2023-05-21T07:06:00.619Z,32.54
2023-05-21T07:08:27.783Z,32.98
2023-05-21T07:10:56.583Z,32.40
2023-05-21T07:13:23.791Z,32.19
2023-05-21T07:15:50.950Z,33.29
2023-05-21T07:18:18.277Z,32.50
2023-05-21T07:20:45.494Z,32.20
2023-05-21T07:23:15.585Z,33.19
2023-05-21T07:25:42.676Z,31.62
2023-05-21T07:28:09.778Z,31.32
2023-05-21T07:30:37.171Z,31.88
2023-05-21T07:33:09.114Z,31.99
2023-05-21T07:35:36.635Z,32.33
2023-05-21T07:38:04.926Z,32.14
2023-05-21T07:40:32.275Z,31.90
2023-05-21T07:43:01.225Z,32.45
2023-05-21T07:45:30.320Z,32.20
2023-05-21T07:47:57.433Z,31.82
2023-05-21T07:50:25.857Z,31.16
2023-05-21T07:52:53.348Z,31.97
2023-05-21T07:55:21.441Z,31.07
2023-05-21T07:57:48.517Z,31.83
2023-05-21T08:00:19.238Z,30.87
2023-05-21T08:02:54.401Z,31.32
2023-05-21T08:05:23.606Z,32.24
2023-05-21T08:07:51.211Z,33.15
2023-05-21T08:10:19.592Z,32.43
2023-05-21T08:12:48.971Z,31.88
2023-05-21T08:15:16.350Z,31.29
2023-05-21T08:17:46.084Z,31.84
2023-05-21T08:20:14.522Z,32.18
2023-05-21T08:22:43.812Z,32.36
2023-05-21T08:25:11.718Z,32.91
2023-05-21T08:27:38.806Z,33.26
2023-05-21T08:30:06.991Z,33.20
2023-05-21T08:32:35.229Z,33.53
2023-05-21T08:35:02.380Z,34.42
2023-05-21T08:37:56.761Z,34.02
2023-05-21T08:40:55.559Z,34.58
2023-05-21T08:43:25.012Z,34.68
2023-05-21T08:45:57.355Z,35.69
2023-05-21T08:48:27.423Z,36.33
2023-05-21T08:50:55.155Z,35.64
2023-05-21T08:53:29.976Z,37.40
2023-05-21T08:55:58.439Z,36.63
2023-05-21T08:58:37.469Z,37.82
2023-05-21T09:01:05.792Z,37.67
2023-05-21T09:03:39.476Z,38.51
2023-05-21T09:06:14.300Z,38.71
2023-05-21T09:08:48.417Z,38.21
2023-05-21T09:11:20.528Z,38.06
2023-05-21T09:13:55.451Z,37.41
2023-05-21T09:16:30.009Z,37.11
2023-05-21T09:18:57.413Z,36.84
2023-05-21T09:21:32.881Z,36.44
2023-05-21T09:24:12.244Z,35.81
2023-05-21T09:26:43.544Z,35.36
2023-05-21T09:29:13.561Z,35.51
2023-05-21T09:31:45.217Z,36.81
2023-05-21T09:34:16.534Z,36.58
2023-05-21T09:36:46.126Z,35.83
2023-05-21T09:39:27.957Z,34.58
2023-05-21T09:41:57.945Z,34.89
2023-05-21T09:44:26.455Z,33.37
2023-05-21T09:47:00.862Z,32.80
2023-05-21T09:49:28.405Z,34.26
2023-05-21T09:52:00.164Z,34.92
2023-05-21T09:54:33.044Z,34.80
2023-05-21T09:57:03.640Z,33.94
2023-05-21T09:59:38.582Z,33.39
2023-05-21T10:02:20.910Z,32.31
2023-05-21T10:04:53.030Z,33.21
2023-05-21T10:07:26.669Z,32.63
2023-05-21T10:09:58.458Z,33.13
2023-05-21T10:12:26.198Z,31.18
2023-05-21T10:15:03.978Z,29.45
2023-05-21T10:17:31.576Z,29.90
2023-05-21T10:20:00.710Z,29.67
2023-05-21T10:22:28.408Z,30.09
2023-05-21T10:24:57.093Z,31.40
2023-05-21T10:27:24.514Z,32.60
2023-05-21T10:29:54.610Z,33.23
2023-05-21T10:32:23.132Z,33.58
2023-05-21T10:34:53.571Z,32.48
2023-05-21T10:37:26.782Z,31.75
2023-05-21T10:39:54.784Z,31.53
2023-05-21T10:42:24.330Z,31.06
2023-05-21T10:45:26.087Z,30.58
2023-05-21T10:47:54.464Z,31.98
2023-05-21T10:50:58.412Z,32.53
2023-05-21T10:54:02.895Z,32.78
2023-05-21T10:56:29.911Z,33.50
2023-05-21T10:58:59.771Z,32.92
2023-05-21T11:01:30.214Z,32.72
2023-05-21T11:03:58.116Z,33.18
2023-05-21T11:06:26.766Z,32.33
2023-05-21T11:08:55.486Z,32.83
2023-05-21T11:11:51.348Z,34.34
2023-05-21T11:14:27.313Z,33.75
2023-05-21T11:16:55.199Z,31.76
2023-05-21T11:19:22.377Z,30.49
2023-05-21T11:21:55.365Z,29.28
2023-05-21T11:24:23.918Z,31.01
2023-05-21T11:26:52.291Z,31.44
2023-05-21T11:29:21.305Z,31.05
2023-05-21T11:32:04.221Z,30.60
2023-05-21T11:34:42.337Z,30.15
2023-05-21T11:37:18.389Z,32.36
2023-05-21T11:39:45.831Z,32.14
2023-05-21T11:42:13.378Z,33.51
2023-05-21T11:44:42.209Z,31.75
2023-05-21T11:47:15.056Z,32.05
2023-05-21T11:49:42.878Z,29.54
2023-05-21T11:52:11.704Z,30.00
2023-05-21T11:54:50.878Z,30.08
2023-05-21T11:57:21.274Z,29.22
2023-05-21T11:59:54.352Z,30.65
2023-05-21T12:02:22.443Z,31.85
2023-05-21T12:04:51.661Z,30.14
2023-05-21T12:07:19.799Z,33.10
2023-05-21T12:09:49.334Z,33.23
2023-05-21T12:12:24.489Z,32.65
2023-05-21T12:14:53.310Z,32.55
2023-05-21T12:17:23.022Z,31.90
2023-05-21T12:19:53.413Z,31.74
2023-05-21T12:22:20.952Z,32.77
2023-05-21T12:24:48.918Z,32.94
2023-05-21T12:27:17.045Z,32.84
2023-05-21T12:29:45.752Z,32.23
2023-05-21T12:32:15.141Z,34.61
2023-05-21T12:34:54.858Z,33.65
2023-05-21T12:37:22.886Z,34.38
2023-05-21T12:39:51.718Z,35.24
2023-05-21T12:42:45.110Z,35.33
2023-05-21T12:45:12.802Z,34.43
2023-05-21T12:47:39.863Z,34.18
2023-05-21T12:50:14.151Z,34.10
2023-05-21T12:52:43.248Z,34.07
2023-05-21T12:55:14.038Z,33.95
2023-05-21T12:57:41.569Z,32.93
2023-05-21T13:00:10.387Z,33.53
2023-05-21T13:02:42.291Z,33.20
2023-05-21T13:05:15.785Z,32.15
2023-05-21T13:07:44.265Z,30.94
2023-05-21T13:10:12.378Z,32.64
2023-05-21T13:12:40.760Z,30.85
2023-05-21T13:15:08.955Z,30.51
2023-05-21T13:17:36.065Z,30.89
2023-05-21T13:20:12.865Z,30.68
2023-05-21T13:22:43.036Z,29.78
2023-05-21T13:25:15.962Z,28.50
2023-05-21T13:27:43.860Z,29.38
2023-05-21T13:30:11.997Z,31.13
2023-05-21T13:32:40.504Z,30.89
2023-05-21T13:35:08.617Z,31.51
2023-05-21T13:37:36.642Z,31.31
2023-05-21T13:40:04.892Z,30.99
2023-05-21T13:42:32.480Z,31.48
2023-05-21T13:44:59.768Z,31.04
2023-05-21T13:47:26.885Z,31.30
2023-05-21T13:49:53.912Z,30.99
2023-05-21T13:52:21.723Z,29.11
2023-05-21T13:54:48.804Z,29.13
2023-05-21T13:57:16.233Z,28.47
2023-05-21T13:59:43.444Z,28.23
2023-05-21T14:02:10.852Z,27.82
2023-05-21T14:04:39.551Z,28.17
2023-05-21T14:07:07.163Z,27.93
2023-05-21T14:09:34.687Z,27.13
2023-05-21T14:12:01.852Z,28.51
2023-05-21T14:14:28.952Z,28.06
2023-05-21T14:16:56.164Z,27.95
2023-05-21T14:19:23.276Z,28.27
2023-05-21T14:21:52.715Z,27.96
2023-05-21T14:24:20.121Z,28.15
2023-05-21T14:26:47.153Z,28.42
2023-05-21T14:29:14.567Z,28.30
2023-05-21T14:31:41.740Z,29.40
2023-05-21T14:34:08.934Z,29.96
2023-05-21T14:36:36.639Z,30.18
2023-05-21T14:39:04.412Z,30.31
2023-05-21T14:41:31.688Z,30.93
2023-05-21T14:43:58.832Z,31.40
2023-05-21T14:46:26.109Z,30.76
2023-05-21T14:48:53.317Z,30.84
2023-05-21T14:51:20.542Z,31.27
2023-05-21T14:53:47.522Z,31.06
2023-05-21T14:56:14.632Z,30.91
2023-05-21T14:58:41.600Z,31.52
2023-05-21T15:01:08.993Z,31.72
2023-05-21T15:03:36.300Z,32.55
2023-05-21T15:06:03.629Z,32.09
2023-05-21T15:08:31.107Z,32.41
2023-05-21T15:10:58.134Z,31.98
2023-05-21T15:13:25.265Z,31.81
2023-05-21T15:15:52.417Z,32.13
2023-05-21T15:18:19.512Z,31.83
2023-05-21T15:20:46.533Z,32.32
2023-05-21T15:23:17.371Z,31.79
2023-05-21T15:25:48.303Z,32.14
2023-05-21T15:28:15.688Z,33.35
2023-05-21T15:30:43.105Z,33.41
2023-05-21T15:33:10.115Z,33.34
2023-05-21T15:35:37.655Z,33.16
2023-05-21T15:38:05.041Z,33.69
2023-05-21T15:40:32.858Z,33.66
2023-05-21T15:43:00.028Z,33.30
2023-05-21T15:45:27.032Z,33.26
2023-05-21T15:47:54.222Z,33.17
2023-05-21T15:50:21.370Z,34.24
2023-05-21T15:52:49.032Z,34.00
2023-05-21T15:55:17.715Z,33.63
2023-05-21T15:57:44.794Z,34.12
2023-05-21T16:00:12.746Z,34.51
2023-05-21T16:02:41.964Z,34.90
2023-05-21T16:05:09.579Z,35.30
2023-05-21T16:07:38.204Z,35.51
2023-05-21T16:10:06.705Z,36.21
2023-05-21T16:12:33.805Z,36.22
2023-05-21T16:15:00.954Z,36.56
2023-05-21T16:17:28.046Z,37.14
2023-05-21T16:19:55.087Z,37.48
2023-05-21T16:22:23.357Z,37.22
2023-05-21T16:24:50.757Z,37.24
2023-05-21T16:27:17.907Z,36.83
2023-05-21T16:29:45.005Z,37.63
2023-05-21T16:32:14.105Z,37.83
2023-05-21T16:34:41.603Z,37.54
2023-05-21T16:37:09.954Z,37.49
2023-05-21T16:39:37.448Z,38.29
2023-05-21T16:42:04.775Z,38.20
2023-05-21T16:44:32.478Z,37.88
2023-05-21T16:47:00.466Z,38.34
2023-05-21T16:49:28.073Z,38.17
2023-05-21T16:51:55.266Z,37.64
2023-05-21T16:54:22.385Z,38.60
2023-05-21T16:56:49.475Z,39.11
2023-05-21T16:59:16.719Z,38.88
2023-05-21T17:01:43.986Z,38.63
2023-05-21T17:04:11.196Z,39.12
2023-05-21T17:06:38.309Z,39.26
2023-05-21T17:09:05.501Z,40.04
2023-05-21T17:11:34.656Z,40.12
2023-05-21T17:14:01.660Z,40.54
2023-05-21T17:16:28.702Z,40.08
2023-05-21T17:18:55.884Z,40.49
2023-05-21T17:21:22.900Z,41.15
2023-05-21T17:23:49.884Z,41.35
2023-05-21T17:26:16.954Z,41.65
2023-05-21T17:28:44.023Z,41.78
2023-05-21T17:31:11.143Z,42.60
2023-05-21T17:33:38.389Z,42.53
2023-05-21T17:36:05.601Z,42.89
2023-05-21T17:38:32.691Z,43.28
2023-05-21T17:40:59.736Z,43.42
2023-05-21T17:43:31.974Z,43.34
2023-05-21T17:45:59.158Z,44.15
2023-05-21T17:48:26.673Z,44.04
2023-05-21T17:50:53.772Z,44.47
2023-05-21T17:53:20.838Z,44.16
2023-05-21T17:55:47.931Z,43.80
2023-05-21T17:58:15.012Z,44.35
2023-05-21T18:00:42.154Z,44.72
2023-05-21T18:03:09.267Z,44.71
2023-05-21T18:05:36.865Z,44.82
2023-05-21T18:08:05.208Z,44.58
2023-05-21T18:10:32.227Z,43.80
2023-05-21T18:12:59.326Z,43.68
2023-05-21T18:15:26.653Z,43.84
2023-05-21T18:17:53.765Z,43.93
2023-05-21T18:20:20.859Z,43.94
2023-05-21T18:22:47.900Z,43.81
2023-05-21T18:25:14.964Z,44.44
2023-05-21T18:27:42.076Z,44.41
2023-05-21T18:30:09.658Z,44.43
2023-05-21T18:32:39.598Z,44.49
2023-05-21T18:35:08.304Z,44.70
2023-05-21T18:37:35.400Z,45.11
2023-05-21T18:40:03.803Z,45.60
2023-05-21T18:42:30.954Z,45.63
2023-05-21T18:45:07.001Z,46.22
2023-05-21T18:47:34.443Z,45.43
2023-05-21T18:50:01.647Z,45.38
2023-05-21T18:52:28.740Z,46.37
2023-05-21T18:54:56.053Z,46.61
2023-05-21T18:57:23.104Z,46.33
2023-05-21T18:59:50.215Z,46.97
2023-05-21T19:02:17.361Z,46.84
2023-05-21T19:04:44.574Z,46.43
2023-05-21T19:07:11.783Z,46.52
2023-05-21T19:09:38.952Z,46.97
2023-05-21T19:12:06.475Z,46.99
2023-05-21T19:14:33.565Z,46.66
2023-05-21T19:17:00.543Z,47.18
2023-05-21T19:19:27.706Z,48.19
2023-05-21T19:21:54.806Z,46.84
2023-05-21T19:24:21.950Z,46.55
2023-05-21T19:26:49.024Z,46.93
2023-05-21T19:29:16.172Z,47.66
2023-05-21T19:31:43.298Z,47.11
2023-05-21T19:34:11.049Z,47.10
2023-05-21T19:36:51.562Z,47.94
2023-05-21T19:39:20.050Z,48.07
2023-05-21T19:41:47.132Z,47.72
2023-05-21T19:44:14.243Z,47.32
2023-05-21T19:46:41.476Z,47.94
2023-05-21T19:49:10.686Z,47.77
2023-05-21T19:51:38.140Z,48.15
2023-05-21T19:54:05.339Z,48.63
2023-05-21T19:56:32.365Z,48.86
2023-05-21T19:58:59.391Z,48.80
2023-05-21T20:01:26.582Z,48.90
2023-05-21T20:03:53.635Z,48.61
2023-05-21T20:06:20.915Z,48.23
2023-05-21T20:08:48.228Z,48.03
2023-05-21T20:11:15.730Z,47.77
2023-05-21T20:13:42.882Z,47.77
2023-05-21T20:16:10.689Z,47.50
2023-05-21T20:18:37.729Z,47.23
2023-05-21T20:21:06.325Z,48.21
2023-05-21T20:23:33.433Z,48.47
2023-05-21T20:26:00.563Z,47.95
2023-05-21T20:28:27.592Z,47.19
2023-05-21T20:30:59.406Z,46.97
2023-05-21T20:33:32.215Z,47.73
2023-05-21T20:35:59.377Z,47.99
2023-05-21T20:38:27.184Z,47.58
2023-05-21T20:40:55.191Z,47.03
2023-05-21T20:43:24.628Z,47.42
2023-05-21T20:45:59.687Z,47.30
2023-05-21T20:48:32.010Z,47.56
2023-05-21T20:51:00.369Z,47.89
2023-05-21T20:53:27.722Z,48.81
2023-05-21T20:55:54.898Z,48.65
2023-05-21T20:58:24.133Z,47.82
2023-05-21T21:00:51.365Z,47.72
2023-05-21T21:03:18.916Z,48.61
2023-05-21T21:05:46.248Z,48.81
2023-05-21T21:08:13.369Z,49.87
2023-05-21T21:10:42.551Z,49.84
2023-05-21T21:13:09.756Z,49.27
2023-05-21T21:15:37.003Z,49.00
2023-05-21T21:18:04.379Z,48.84
2023-05-21T21:20:31.484Z,49.26
2023-05-21T21:22:58.497Z,49.53
2023-05-21T21:25:25.581Z,49.46
2023-05-21T21:27:52.647Z,49.30
2023-05-21T21:30:19.804Z,49.38
2023-05-21T21:32:47.782Z,49.76
2023-05-21T21:35:14.982Z,49.05
2023-05-21T21:37:42.028Z,49.58
2023-05-21T21:40:09.606Z,50.04
2023-05-21T21:42:36.604Z,49.70
2023-05-21T21:45:04.752Z,49.93
2023-05-21T21:47:31.921Z,49.67
2023-05-21T21:49:59.161Z,50.80
2023-05-21T21:52:27.605Z,50.77
2023-05-21T21:54:58.122Z,49.93
2023-05-21T21:57:27.617Z,49.96
2023-05-21T21:59:54.614Z,50.93
2023-05-21T22:02:22.488Z,51.33
2023-05-21T22:04:49.753Z,51.11
2023-05-21T22:07:18.337Z,52.23
2023-05-21T22:09:45.961Z,55.53
2023-05-21T22:12:13.356Z,58.22
2023-05-21T22:14:40.384Z,57.14
2023-05-21T22:17:08.727Z,57.54
2023-05-21T22:19:36.112Z,58.23
2023-05-21T22:22:04.575Z,59.10
2023-05-21T22:24:33.156Z,59.25
2023-05-21T22:27:00.744Z,60.98
2023-05-21T22:29:27.805Z,61.71
2023-05-21T22:31:55.149Z,60.11
2023-05-21T22:34:23.165Z,59.00
2023-05-21T22:36:50.190Z,59.14
2023-05-21T22:39:18.009Z,60.20
2023-05-21T22:41:45.758Z,60.45
2023-05-21T22:44:12.754Z,60.00
2023-05-21T22:46:42.204Z,60.17
2023-05-21T22:49:10.379Z,59.09
2023-05-21T22:51:37.732Z,59.61
2023-05-21T22:54:04.949Z,59.68
2023-05-21T22:56:32.010Z,60.90
2023-05-21T22:58:59.665Z,61.52
2023-05-21T23:01:27.028Z,60.11
2023-05-21T23:03:54.110Z,59.87
2023-05-21T23:06:21.293Z,58.34
2023-05-21T23:08:48.483Z,57.60
2023-05-21T23:11:15.599Z,58.55
2023-05-21T23:13:42.694Z,56.74
2023-05-21T23:16:10.008Z,56.47
2023-05-21T23:18:37.149Z,55.64
2023-05-21T23:21:04.344Z,56.49
2023-05-21T23:23:31.339Z,57.14
2023-05-21T23:25:59.162Z,58.12
2023-05-21T23:28:26.608Z,58.25
2023-05-21T23:30:53.995Z,57.60
2023-05-21T23:33:21.698Z,58.06
2023-05-21T23:35:48.917Z,56.56
2023-05-21T23:38:15.906Z,55.69
2023-05-21T23:40:43.567Z,57.89
2023-05-21T23:43:10.794Z,58.98
2023-05-21T23:45:37.843Z,57.56
2023-05-21T23:48:05.213Z,57.08
2023-05-21T23:50:32.426Z,56.78
2023-05-21T23:52:59.696Z,57.14
2023-05-21T23:55:26.884Z,57.85
2023-05-21T23:57:53.877Z,59.40
